Weather History for KVYS - January, 2014

Change the Weather History Date:

Monday, January 27, 2014

  Actual Average Record
Temperature  
Mean Temperature -1 °F -  
Max Temperature 4 °F 28 °F 60 °F (2002)
Min Temperature -6 °F 10 °F -8 °F (1971)
Degree Days  
Heating Degree Days 66    
Moisture  
Dew Point -10 °F    
Average Humidity 68    
Maximum Humidity 78    
Minimum Humidity 61    
Precipitation  
Precipitation 0.00 in - - ()
Sea Level Pressure  
Sea Level Pressure 30.29 in    
Wind  
Wind Speed 18 mph (WNW)    
Max Wind Speed 24 mph    
Max Gust Speed 34 mph    
Visibility 8 miles    
Events      
Averages and records for this station are not official NWS values.
T = Trace of Precipitation, MM = Missing Value Source: NWS Daily Summary

Daily Weather History Graph

Daily Weather History Graph

Search for Another Location

Airport or City:

Trip Planner

Search our weather history database for the weather conditions in past years. The results will help you decide how hot, cold, wet, or windy it might be!

Date:

Astronomy

Jan. 27, 2014 Rise Set
Actual Time 7:12 AM CST 5:06 PM CST
Civil Twilight 6:42 AM CST 5:36 PM CST
Nautical Twilight 6:09 AM CST 6:09 PM CST
Astronomical Twilight 5:36 AM CST 6:42 PM CST
Moon 3:54 AM CST (1/27) 1:52 PM CST (1/27)
Length of Visible Light 10h 53m
Length of Day
9h 54m
Waning Crescent, 14% of the Moon is Illuminated
Jan 27
Waning Crescent
Jan 30
New
Feb 6
First Quarter
Feb 14
Full
Feb 22
Last Quarter

Hourly Weather History & Observations

Time (CST) Temp. Windchill Dew Point Humidity Pressure Visibility Wind Dir Wind Speed Gust Speed Precip Events Conditions
12:15 AM 4.1 °F -18.3 °F -1.3 °F 78% 29.97 in - WNW 24.2 mph 33.4 mph N/A   Overcast
12:35 AM 2.8 °F -19.1 °F -3.3 °F 76% 29.98 in - WNW 21.9 mph 33.4 mph N/A   Scattered Clouds
12:55 AM 2.3 °F -19.3 °F -3.6 °F 76% 29.99 in - WNW 20.7 mph - N/A   Clear
1:15 AM 2.3 °F -18.2 °F -3.6 °F 76% 30.01 in - WNW 18.4 mph 32.2 mph N/A   Scattered Clouds
1:35 AM 2.1 °F -19.0 °F -4.0 °F 76% 30.03 in - West 19.6 mph 26.5 mph N/A   Scattered Clouds
1:55 AM 1.8 °F -17.8 °F -4.4 °F 76% 30.05 in - WNW 16.1 mph 27.6 mph N/A   Scattered Clouds
2:15 AM 1.4 °F -18.8 °F -4.9 °F 75% 30.07 in - WNW 17.3 mph 31.1 mph N/A   Scattered Clouds
2:35 AM 1.0 °F -18.0 °F -5.8 °F 73% 30.08 in - West 15.0 mph 24.2 mph N/A   Clear
2:55 AM 0.5 °F -20.0 °F -5.8 °F 75% 30.09 in - WNW 17.3 mph 24.2 mph N/A   Clear
3:15 AM 0.5 °F -20.0 °F -6.2 °F 74% 30.10 in 7.0 mi West 17.3 mph 23.0 mph N/A   Scattered Clouds
3:35 AM 0.5 °F -21.6 °F -6.0 °F 74% 30.11 in 3.0 mi WNW 20.7 mph 26.5 mph N/A   Haze
3:55 AM 0.1 °F -20.5 °F -6.9 °F 72% 30.13 in 5.0 mi West 17.3 mph 27.6 mph N/A   Haze
4:15 AM -0.4 °F -20.5 °F -7.8 °F 71% 30.14 in 7.0 mi WNW 16.1 mph 26.5 mph N/A   Clear
4:35 AM -0.6 °F -20.8 °F -7.8 °F 72% 30.15 in 10.0 mi West 16.1 mph 21.9 mph N/A   Clear
4:55 AM -0.8 °F -21.0 °F -7.6 °F 73% 30.16 in 5.0 mi WNW 16.1 mph 24.2 mph N/A   Haze
5:15 AM -0.9 °F -20.6 °F -7.8 °F 73% 30.17 in 10.0 mi West 15.0 mph - N/A   Scattered Clouds
5:35 AM -0.9 °F -21.2 °F -8.0 °F 72% 30.18 in 10.0 mi WNW 16.1 mph 24.2 mph N/A   Scattered Clouds
5:55 AM -1.7 °F -23.4 °F -8.9 °F 71% 30.18 in 7.0 mi West 18.4 mph - N/A   Clear
6:15 AM -1.8 °F -23.6 °F -9.4 °F 70% 30.20 in 4.0 mi West 18.4 mph 26.5 mph N/A   Haze
6:35 AM -2.2 °F -24.1 °F -9.6 °F 71% 30.21 in 5.0 mi West 18.4 mph 25.3 mph N/A   Haze
6:55 AM -2.2 °F -23.5 °F -9.6 °F 71% 30.22 in 7.0 mi West 17.3 mph 24.2 mph N/A   Scattered Clouds
7:15 AM -2.2 °F -21.5 °F -9.4 °F 71% 30.23 in 5.0 mi WNW 13.8 mph 23.0 mph N/A   Haze
7:35 AM -2.7 °F -25.4 °F -10.3 °F 70% 30.24 in 4.0 mi WNW 19.6 mph 26.5 mph N/A   Haze
7:55 AM -2.2 °F -24.7 °F -10.3 °F 68% 30.25 in 10.0 mi WNW 19.6 mph 24.2 mph N/A   Clear
8:15 AM -1.8 °F -24.2 °F -9.6 °F 70% 30.26 in 7.0 mi WNW 19.6 mph 27.6 mph N/A   Clear
8:35 AM -2.2 °F -25.7 °F -10.3 °F 68% 30.26 in 1.2 mi WNW 21.9 mph 34.5 mph N/A   Haze
8:55 AM -1.8 °F -25.2 °F -10.3 °F 67% 30.27 in 7.0 mi WNW 21.9 mph 27.6 mph N/A   Clear
9:15 AM -1.8 °F -24.2 °F -10.5 °F 67% 30.28 in 5.0 mi WNW 19.6 mph 27.6 mph N/A   Haze
9:35 AM -2.0 °F -26.0 °F -11.0 °F 66% 30.29 in 3.0 mi WNW 23.0 mph 28.8 mph N/A   Haze
9:55 AM -1.7 °F -25.0 °F -10.5 °F 66% 30.30 in 3.0 mi WNW 21.9 mph 29.9 mph N/A   Haze
10:15 AM -1.3 °F -23.5 °F -10.3 °F 66% 30.31 in 7.0 mi WNW 19.6 mph 25.3 mph N/A   Scattered Clouds
10:35 AM -0.9 °F -22.4 °F -10.1 °F 65% 30.32 in 5.0 mi WNW 18.4 mph 25.3 mph N/A   Haze
10:55 AM -1.1 °F -22.1 °F -9.2 °F 69% 30.33 in 4.0 mi WNW 17.3 mph 26.5 mph N/A   Haze
11:15 AM -0.9 °F -21.9 °F -9.2 °F 68% 30.33 in 3.0 mi West 17.3 mph 25.3 mph N/A   Haze
11:35 AM -0.9 °F -21.9 °F -9.4 °F 67% 30.33 in 4.0 mi West 17.3 mph 24.2 mph N/A   Haze
11:55 AM -0.4 °F -21.2 °F -9.4 °F 66% 30.33 in 7.0 mi WNW 17.3 mph 26.5 mph N/A   Mostly Cloudy
12:15 PM -0.8 °F -22.2 °F -9.2 °F 67% 30.33 in 4.0 mi West 18.4 mph 26.5 mph N/A   Haze
12:35 PM -0.4 °F -22.3 °F -9.8 °F 65% 30.33 in 5.0 mi WNW 19.6 mph 27.6 mph N/A   Haze
12:55 PM -0.0 °F -22.4 °F -9.2 °F 65% 30.33 in 10.0 mi WNW 20.7 mph 27.6 mph N/A   Overcast
1:15 PM -0.2 °F -23.1 °F -9.4 °F 65% 30.33 in 10.0 mi WNW 21.9 mph 26.5 mph N/A   Mostly Cloudy
1:35 PM -0.4 °F -21.2 °F -8.5 °F 69% 30.33 in 4.0 mi WNW 17.3 mph 25.3 mph N/A   Haze
1:55 PM -0.4 °F -22.3 °F -9.6 °F 65% 30.34 in 7.0 mi WNW 19.6 mph 25.3 mph N/A   Mostly Cloudy
2:15 PM -0.9 °F -21.9 °F -9.0 °F 69% 30.35 in 5.0 mi WNW 17.3 mph 26.5 mph N/A   Haze
2:35 PM -0.9 °F -22.4 °F -9.9 °F 66% 30.36 in 10.0 mi WNW 18.4 mph 26.5 mph N/A   Mostly Cloudy
2:55 PM -0.9 °F -23.0 °F -10.8 °F 63% 30.36 in 10.0 mi WNW 19.6 mph 24.2 mph N/A   Scattered Clouds
3:15 PM -0.9 °F -23.0 °F -11.0 °F 62% 30.38 in 10.0 mi WNW 19.6 mph 25.3 mph N/A   Clear
3:35 PM -1.3 °F -22.9 °F -11.6 °F 62% 30.38 in 10.0 mi WNW 18.4 mph 25.3 mph N/A   Clear
3:55 PM -1.5 °F -22.6 °F -12.1 °F 61% 30.39 in 10.0 mi WNW 17.3 mph 24.2 mph N/A   Clear
4:15 PM -1.7 °F -22.8 °F -12.3 °F 61% 30.39 in 10.0 mi WNW 17.3 mph - N/A   Clear
4:35 PM -2.2 °F -20.7 °F -12.8 °F 61% 30.39 in 10.0 mi WNW 12.7 mph - N/A   Clear
4:55 PM -2.4 °F -21.7 °F -13.0 °F 61% 30.40 in 10.0 mi WNW 13.8 mph 18.4 mph N/A   Clear
5:15 PM -3.1 °F -21.8 °F -13.0 °F 63% 30.40 in 10.0 mi WNW 12.7 mph - N/A   Clear
5:35 PM -3.1 °F -21.0 °F -13.0 °F 63% 30.42 in 10.0 mi West 11.5 mph - N/A   Clear
5:55 PM -3.5 °F -21.4 °F -13.2 °F 63% 30.42 in 10.0 mi West 11.5 mph 17.3 mph N/A   Clear
6:15 PM -3.5 °F -21.4 °F -13.2 °F 63% 30.43 in 10.0 mi WNW 11.5 mph - N/A   Clear
6:35 PM -3.5 °F -22.3 °F -13.2 °F 63% 30.43 in 10.0 mi WNW 12.7 mph - N/A   Clear
6:55 PM -4.0 °F -22.1 °F -13.5 °F 64% 30.43 in 10.0 mi WNW 11.5 mph 18.4 mph N/A   Clear
7:15 PM -4.2 °F -22.3 °F -13.9 °F 63% 30.43 in 10.0 mi WNW 11.5 mph - N/A   Clear
7:35 PM -4.4 °F -21.6 °F -13.9 °F 64% 30.43 in 10.0 mi WNW 10.4 mph - N/A   Clear
7:55 PM -4.4 °F -22.6 °F -13.9 °F 64% 30.44 in 10.0 mi WNW 11.5 mph - N/A   Clear
8:15 PM -4.4 °F -21.6 °F -13.9 °F 64% 30.44 in 10.0 mi WNW 10.4 mph 16.1 mph N/A   Clear
8:35 PM -4.9 °F -21.3 °F -13.9 °F 65% 30.44 in 10.0 mi WNW 9.2 mph - N/A   Clear
8:55 PM -5.1 °F -20.4 °F -14.1 °F 65% 30.44 in 10.0 mi West 8.1 mph - N/A   Clear
9:15 PM -5.8 °F -22.4 °F -14.4 °F 66% 30.45 in 10.0 mi West 9.2 mph - N/A   Clear
9:35 PM -5.4 °F -23.9 °F -14.1 °F 66% 30.45 in 10.0 mi WNW 11.5 mph - N/A   Clear
9:55 PM -5.3 °F -22.8 °F -13.9 °F 66% 30.45 in 10.0 mi WNW 10.4 mph - N/A   Clear
10:15 PM -5.4 °F -24.8 °F -13.9 °F 67% 30.45 in 10.0 mi West 12.7 mph - N/A   Clear
10:35 PM -5.8 °F -24.4 °F -14.1 °F 67% 30.45 in 10.0 mi WNW 11.5 mph - N/A   Clear
10:55 PM -6.0 °F -23.6 °F -14.1 °F 68% 30.46 in 10.0 mi West 10.4 mph - N/A   Clear
11:15 PM -6.0 °F -22.6 °F -14.1 °F 68% 30.46 in 10.0 mi West 9.2 mph - N/A   Clear
11:35 PM -6.2 °F -22.8 °F -14.3 °F 68% 30.46 in 10.0 mi WNW 9.2 mph - N/A   Clear
11:55 PM -6.0 °F -22.6 °F -14.1 °F 68% 30.46 in 10.0 mi WNW 9.2 mph - N/A   Clear